We Are Winnipeg.

Screenshot by Tavis Harrison

Come explore the heart of Canada.  


  Upcoming Events

Operation Deep Freeze  January 29, 2022 23:59z
Cash4Cargo 2  February 12, 2022 19:00z

  Top Controllers this Month

Justin 984292
15:57

Tavis Harrison 1444863
12:51

James Norris 1405159
12:27

Karl Sawatzky 1272864
10:58

Zachary Collison 1431902
09:36

  Online Controllers

No controllers online.

  Weather

CYWG - Winnipeg / James Armstrong Richardson International Airport   VFR
CYWG 271000Z 36013G20KT 15SM DRSN SKC M16/M21 A3016 RMK PRESRR SLP234

CYXE - Saskatoon John G. Diefenbaker International Airport   VFR
CYXE 271046Z 07006KT 15SM OVC061 M13/M17 A3036 RMK SC8 SLP321

CYQT - Thunder Bay Airport   VFR
CYQT 271000Z 33012G20KT 15SM -SN DRSN FEW030 OVC040 M06/M11 A2972 RMK SC2SC6 PRESRR SLP079

CYQR - Regina International Airport   VFR
CYQR 271000Z 35011G18KT 15SM FEW028 BKN068 M12/M16 A3026 RMK SC1AC6 PRESRR SLP289

CYMJ - Moose Jaw Air Vice Marshal C. M. McEwen Airport   VFR
CYMJ 271000Z 01011KT 15SM -SN SCT012 OVC067 M09/M11 A3028 RMK SC3AC5 FST OBS SLP287

CYPG - Portage-la-Prairie / Southport Airport   MVFR OUTDATED
CYPG 262300Z 34009KT 15SM OVC015 M04/M07 A2961 RMK SC8 LAST OBS/NEXT 271200 UTC SLP045